Latest Coastal Weather Observations for Legendre Island

IDW60701

Issued at 9:35 pm WST Friday 22 August 2014 (issued every 10 minutes, with the page automatically refreshed every 10 minutes)

About coastal observations | Map of coastal stations | Coastal observations for WA | Marine services | Other Formats
Station Details ID: 004095 Name: LEGENDRE ISLAND Lat: -20.36 Lon: 116.84 Height: 29.0 m
Data from the previous 72 hours. | See also: Recent months for locations in Western Australia
Date/Time
WST
Temp

°C
Wind Pressure Rain
since 9am
mm
Weather Cloud Vis
km
Sea
Height
m
Swell
Dir
 
Speed
knots
Gust
knots
hPa Trend Height
m
Period
s
Dir
22/09:30pm 21.7 NW 10 11 1016.9 - - - - - - - - -
22/09:00pm 21.9 NW 7 8 1017.1 - - - - - - - - -
22/08:30pm 22.2 NNW 7 8 1017.0 - - - - - - - - -
22/08:00pm 22.3 NNW 7 8 1016.8 - - - - - - - - -
22/07:30pm 22.4 NNW 6 7 1016.6 - - - - - - - - -
22/07:00pm 22.6 N 6 7 1016.1 - - - - - - - - -
22/06:30pm 22.8 N 6 7 1015.7 - - - - - - - - -
22/06:00pm 23.1 N 5 5 1015.4 - - - - - - - - -
22/05:30pm 23.6 N 5 5 1015.1 - - - - - - - - -
22/05:00pm 24.2 N 5 5 1015.0 - - - - - - - - -
22/04:30pm 24.4 N 6 7 1014.9 - - - - - - - - -
22/04:00pm 25.4 NNE 6 7 1014.8 - - - - - - - - -
22/03:30pm 25.3 NNE 6 7 1014.7 - - - - - - - - -
22/03:00pm 25.3 NE 6 7 1014.8 - - - - - - - - -
22/02:30pm 25.1 NE 6 7 1014.9 - - - - - - - - -
22/02:00pm 25.0 NE 7 8 1015.0 - - - - - - - - -
22/01:30pm 25.2 ENE 7 8 1015.2 - - - - - - - - -
22/01:00pm 24.9 ENE 8 9 1015.6 - - - - - - - - -
22/12:30pm 25.0 ENE 9 10 1016.0 - - - - - - - - -
22/12:00pm 24.5 ENE 9 10 1016.3 - - - - - - - - -
22/11:30am 25.1 ENE 8 10 1016.6 - - - - - - - - -
22/11:00am 24.8 E 8 9 1017.0 - - - - - - - - -
22/10:30am 24.4 E 7 9 1017.1 - - - - - - - - -
22/10:00am 24.0 E 7 8 1017.2 - - - - - - - - -
22/09:30am 23.6 E 7 8 1017.2 - - - - - - - - -
22/09:00am 22.6 E 7 8 1017.1 - - - - - - - - -
22/08:30am 22.3 E 6 7 1016.8 - - - - - - - - -
22/08:00am 21.6 ESE 4 6 1016.6 - - - - - - - - -
22/07:30am 20.5 SSE 3 3 1016.4 - - - - - - - - -
22/07:00am 18.9 SSE 4 5 1016.1 - - - - - - - - -
22/06:30am 18.6 S 5 6 1015.9 - - - - - - - - -
22/06:00am 18.6 S 7 8 1015.7 - - - - - - - - -
22/05:30am 18.8 SW 9 11 1015.0 - - - - - - - - -
22/05:00am 18.8 SSW 8 10 1014.9 - - - - - - - - -
22/04:30am 19.3 SW 9 11 1014.7 - - - - - - - - -
22/04:00am 19.5 SW 10 12 1014.7 - - - - - - - - -
22/03:30am 19.5 SW 9 11 1014.8 - - - - - - - - -
22/03:00am 19.7 SW 9 10 1015.1 - - - - - - - - -
22/02:30am 20.0 SW 9 11 1015.4 - - - - - - - - -
22/02:00am 19.9 SW 9 12 1015.8 - - - - - - - - -
22/01:30am 19.8 SW 8 10 1016.1 - - - - - - - - -
22/01:00am 19.5 SW 8 10 1016.4 - - - - - - - - -
22/12:30am 19.6 WSW 6 7 1016.7 - - - - - - - - -
22/12:00am 19.8 WSW 7 8 1016.7 - - - - - - - - -
 
Date/Time
WST
Temp

°C
Wind Pressure Rain
since 9am
mm
Weather Cloud Vis
km
Sea
Height
m
Swell
Dir
 
Speed
knots
Gust
knots
hPa Trend Height
m
Period
s
Dir
21/11:30pm 20.3 WSW 9 10 1016.7 - - - - - - - - -
21/11:00pm 20.4 WSW 10 12 1016.7 - - - - - - - - -
21/10:30pm 20.3 SW 10 11 1016.8 - - - - - - - - -
21/10:00pm 20.1 WSW 8 10 1016.8 - - - - - - - - -
21/09:30pm 20.0 WSW 8 9 1016.8 - - - - - - - - -
21/09:00pm 20.3 W 8 8 1016.8 - - - - - - - - -
21/08:30pm 20.9 W 8 9 1016.4 - - - - - - - - -
21/08:00pm 20.9 W 9 10 1016.2 - - - - - - - - -
21/07:30pm 21.0 W 9 9 1015.7 - - - - - - - - -
21/07:00pm 21.2 W 8 9 1015.3 - - - - - - - - -
21/06:30pm 21.4 W 8 8 1015.0 - - - - - - - - -
21/06:00pm 22.2 W 6 7 1014.8 - - - - - - - - -
21/05:30pm 23.7 WNW 6 8 1014.7 - - - - - - - - -
21/05:00pm 24.2 NW 6 7 1014.5 - - - - - - - - -
21/04:30pm 24.6 NNW 6 7 1014.3 - - - - - - - - -
21/04:00pm 25.1 N 7 8 1014.2 - - - - - - - - -
21/03:30pm 25.6 N 6 7 1014.2 - - - - - - - - -
21/03:00pm 25.4 N 6 6 1014.2 - - - - - - - - -
21/02:30pm 25.2 N 5 6 1014.4 - - - - - - - - -
21/02:00pm 25.4 N 5 6 1014.5 - - - - - - - - -
21/01:30pm 25.0 N 5 5 1014.8 - - - - - - - - -
21/01:00pm 25.2 N 4 5 1015.2 - - - - - - - - -
21/12:30pm 25.5 NNE 4 5 1015.5 - - - - - - - - -
21/12:00pm 25.7 NE 4 6 1015.9 - - - - - - - - -
21/11:30am 25.2 NE 4 4 1016.4 - - - - - - - - -
21/11:00am 24.7 NE 4 4 1016.7 - - - - - - - - -
21/10:30am 24.3 E 4 5 1017.0 - - - - - - - - -
21/10:00am 24.1 ENE 4 5 1017.1 - - - - - - - - -
21/09:30am 24.0 ENE 4 5 1017.0 - - - - - - - - -
21/09:00am 24.5 SE 5 8 1017.0 - - - - - - - - -
21/08:30am 23.1 SSE 4 5 1016.7 - - - - - - - - -
21/08:00am 20.7 S 4 5 1016.4 - - - - - - - - -
21/07:30am 20.3 S 5 5 1016.0 - - - - - - - - -
21/07:00am 19.2 SSW 4 4 1015.6 - - - - - - - - -
21/06:30am 19.2 SW 4 5 1015.3 - - - - - - - - -
21/06:00am 18.8 WSW 5 6 1015.1 - - - - - - - - -
21/05:30am 19.3 WSW 5 5 1015.0 - - - - - - - - -
21/05:00am 18.5 W 6 6 1014.8 - - - - - - - - -
21/04:30am 19.1 W 6 7 1014.7 - - - - - - - - -
21/04:00am 19.3 W 6 6 1014.6 - - - - - - - - -
21/03:30am 20.3 WNW 3 4 1014.6 - - - - - - - - -
21/03:00am 20.6 W 2 2 1014.6 - - - - - - - - -
21/02:30am 20.6 W 2 2 1014.8 - - - - - - - - -
21/02:00am 20.7 WSW 2 2 1014.9 - - - - - - - - -
21/01:30am 20.7 WSW 1 1 1015.3 - - - - - - - - -
21/01:00am 20.4 WSW 3 4 1015.6 - - - - - - - - -
21/12:30am 19.9 WSW 4 5 1015.6 - - - - - - - - -
21/12:00am 19.9 W 5 5 1015.7 - - - - - - - - -
 
Date/Time
WST
Temp

°C
Wind Pressure Rain
since 9am
mm
Weather Cloud Vis
km
Sea
Height
m
Swell
Dir
 
Speed
knots
Gust
knots
hPa Trend Height
m
Period
s
Dir
20/11:30pm 20.0 W 5 5 1015.8 - - - - - - - - -
20/11:00pm 20.0 W 5 6 1016.1 - - - - - - - - -
20/10:30pm 20.5 WNW 6 6 1016.2 - - - - - - - - -
20/10:00pm 20.2 W 7 8 1016.0 - - - - - - - - -
20/09:30pm 20.7 WNW 6 7 1016.1 - - - - - - - - -
20/09:00pm 20.5 NW 6 7 1016.1 - - - - - - - - -
20/08:30pm 20.7 NW 6 7 1016.0 - - - - - - - - -
20/08:00pm 20.6 NW 6 7 1015.7 - - - - - - - - -
20/07:30pm 21.1 NW 7 8 1015.3 - - - - - - - - -
20/07:00pm 21.6 NNW 8 9 1015.0 - - - - - - - - -
20/06:30pm 22.0 N 9 10 1014.8 - - - - - - - - -
20/06:00pm 22.6 N 8 9 1014.8 - - - - - - - - -
20/05:30pm 23.2 N 8 9 1014.7 - - - - - - - - -
20/05:00pm 23.9 N 9 10 1014.6 - - - - - - - - -
20/04:30pm 24.4 N 8 9 1014.6 - - - - - - - - -
20/04:00pm 24.7 N 8 9 1014.5 - - - - - - - - -
20/03:30pm 25.1 N 7 8 1014.3 - - - - - - - - -
20/03:00pm 25.4 N 4 5 1014.4 - - - - - - - - -
20/02:30pm 26.0 NNE 5 6 1014.7 - - - - - - - - -
20/02:00pm 25.6 NE 3 4 1014.9 - - - - - - - - -
20/01:30pm 25.6 NE 4 5 1015.4 - - - - - - - - -
20/01:00pm 25.4 NE 4 5 1015.9 - - - - - - - - -
20/12:30pm 24.9 NE 5 6 1016.2 - - - - - - - - -
20/12:00pm 25.7 ENE 6 8 1016.5 - - - - - - - - -
20/11:30am 28.0 SE 10 14 1016.8 - - - - - - - - -
20/11:00am 26.9 SE 11 14 1017.2 - - - - - - - - -
20/10:30am 25.6 SSE 11 15 1017.6 - - - - - - - - -
20/10:00am 24.6 SSE 13 17 1017.8 - - - - - - - - -
20/09:30am 24.3 SSE 12 15 1017.8 - - - - - - - - -
20/09:00am 23.8 SSE 12 14 1017.5 - - - - - - - - -
20/08:30am 23.3 SSE 13 16 1017.6 - - - - - - - - -
20/08:00am 22.6 SSE 12 15 1017.0 - - - - - - - - -
20/07:30am 21.3 SSE 12 15 1016.7 - - - - - - - - -
20/07:00am 19.8 S 14 17 1015.9 - - - - - - - - -
20/06:30am 18.6 S 11 13 1016.2 - - - - - - - - -
20/06:00am 18.5 S 12 15 1015.6 - - - - - - - - -
20/05:30am 18.4 S 10 13 1015.8 - - - - - - - - -
20/05:00am 18.9 SSW 9 11 1015.5 - - - - - - - - -
20/04:30am 19.1 SSW 10 11 1015.6 - - - - - - - - -
20/04:00am 19.6 SW 11 13 1015.4 - - - - - - - - -
20/03:30am 19.8 SSW 12 14 1015.8 - - - - - - - - -
20/03:00am 19.8 SW 11 12 1015.6 - - - - - - - - -
20/02:30am 19.9 WSW 9 11 1015.8 - - - - - - - - -
20/02:00am 19.7 W 8 10 1015.8 - - - - - - - - -
20/01:30am 19.6 W 8 9 1016.2 - - - - - - - - -
20/01:00am 19.5 W 8 9 1016.2 - - - - - - - - -
20/12:30am 19.8 W 7 8 1016.8 - - - - - - - - -
20/12:00am 19.9 WNW 8 8 1017.0 - - - - - - - - -
 
Date/Time
WST
Temp

°C
Wind Pressure Rain
since 9am
mm
Weather Cloud Vis
km
Sea
Height
m
Swell
Dir
 
Speed
knots
Gust
knots
hPa Trend Height
m
Period
s
Dir
19/11:30pm 19.9 WNW 7 8 1017.5 - - - - - - - - -
19/11:00pm 19.6 W 6 8 1017.3 - - - - - - - - -
19/10:30pm 19.8 W 6 7 1017.7 - - - - - - - - -
19/10:00pm 20.2 W 8 8 1017.5 - - - - - - - - -

Other Formats:

Comma delimited format used in spreadsheet applications
http://www.bom.gov.au/fwo/IDW60701/IDW60701.94307.axf

JavaScript Object Notation format (JSON) in row-major order
http://www.bom.gov.au/fwo/IDW60701/IDW60701.94307.json